createdAt,value
2022-08-26T00:02:14.467Z,75.0
2022-08-26T00:07:08.456Z,75.0
2022-08-26T00:09:50.555Z,75.0
2022-08-26T00:12:27.434Z,75.0
2022-08-26T00:14:56.579Z,75.0
2022-08-26T00:17:27.189Z,75.0
2022-08-26T00:19:50.836Z,75.0
2022-08-26T00:22:34.672Z,76.0
2022-08-26T00:25:05.293Z,76.0
2022-08-26T00:27:38.289Z,76.0
2022-08-26T00:30:09.958Z,76.0
2022-08-26T00:32:36.242Z,75.0
2022-08-26T00:35:08.656Z,75.0
2022-08-26T00:37:49.616Z,76.0
2022-08-26T00:40:21.484Z,76.0
2022-08-26T00:42:56.226Z,76.0
2022-08-26T00:47:50.158Z,76.0
2022-08-26T00:50:20.848Z,76.0
2022-08-26T00:53:01.651Z,76.0
2022-08-26T00:55:34.601Z,76.0
2022-08-26T00:58:09.165Z,76.0
2022-08-26T01:00:41.420Z,76.0
2022-08-26T01:03:06.001Z,76.0
2022-08-26T01:05:42.828Z,76.0
2022-08-26T01:08:24.840Z,76.0
2022-08-26T01:10:55.798Z,77.0
2022-08-26T01:13:17.664Z,77.0
2022-08-26T01:15:52.361Z,77.0
2022-08-26T01:18:23.988Z,76.0
2022-08-26T01:21:07.990Z,77.0
2022-08-26T01:23:31.886Z,77.0
2022-08-26T01:28:35.780Z,77.0
2022-08-26T01:31:10.995Z,77.0
2022-08-26T01:33:41.985Z,77.0
2022-08-26T01:36:13.674Z,77.0
2022-08-26T01:38:45.037Z,77.0
2022-08-26T01:41:29.958Z,76.0
2022-08-26T01:43:54.495Z,76.0
2022-08-26T01:46:25.303Z,76.0
2022-08-26T01:48:57.442Z,77.0
2022-08-26T01:51:28.254Z,76.0
2022-08-26T01:54:00.190Z,77.0
2022-08-26T01:56:33.041Z,77.0
2022-08-26T01:59:04.499Z,77.0
2022-08-26T02:01:39.427Z,77.0
2022-08-26T02:04:10.078Z,77.0
2022-08-26T02:09:21.384Z,77.0
2022-08-26T02:11:52.096Z,77.0
2022-08-26T02:14:22.713Z,77.0
2022-08-26T02:16:55.152Z,77.0
2022-08-26T02:19:27.729Z,77.0
2022-08-26T02:22:02.112Z,77.0
2022-08-26T02:24:37.468Z,77.0
2022-08-26T02:27:08.056Z,77.0
2022-08-26T02:29:38.645Z,77.0
2022-08-26T02:32:00.990Z,77.0
2022-08-26T02:34:42.056Z,77.0
2022-08-26T02:37:13.693Z,77.0
2022-08-26T02:39:44.301Z,77.0
2022-08-26T02:42:14.949Z,77.0
2022-08-26T02:44:45.552Z,77.0
2022-08-26T02:49:57.614Z,77.0
2022-08-26T02:52:28.596Z,77.0
2022-08-26T02:54:59.854Z,77.0
2022-08-26T02:57:32.257Z,77.0
2022-08-26T03:00:02.903Z,77.0
2022-08-26T03:02:33.595Z,77.0
2022-08-26T03:05:14.383Z,77.0
2022-08-26T03:07:47.051Z,78.0
2022-08-26T03:10:21.339Z,78.0
2022-08-26T03:12:43.288Z,77.0
2022-08-26T03:15:28.158Z,78.0
2022-08-26T03:18:00.381Z,78.0
2022-08-26T03:20:32.013Z,78.0
2022-08-26T03:23:06.365Z,78.0
2022-08-26T03:25:29.028Z,78.0
2022-08-26T03:30:30.224Z,78.0
2022-08-26T03:33:15.519Z,78.0
2022-08-26T03:35:47.234Z,78.0
2022-08-26T03:38:17.841Z,78.0
2022-08-26T03:40:48.854Z,78.0
2022-08-26T03:43:12.200Z,78.0
2022-08-26T03:45:43.316Z,78.0
2022-08-26T03:48:29.024Z,78.0
2022-08-26T03:51:01.941Z,78.0
2022-08-26T03:53:33.756Z,78.0
2022-08-26T03:55:56.755Z,78.0
2022-08-26T03:58:28.079Z,78.0
2022-08-26T04:01:05.527Z,78.0
2022-08-26T04:03:39.539Z,78.0
2022-08-26T04:06:10.121Z,78.0
2022-08-26T04:11:10.906Z,78.0
2022-08-26T04:13:42.961Z,78.0
2022-08-26T04:16:14.062Z,78.0
2022-08-26T04:21:26.591Z,78.0
2022-08-26T04:23:58.417Z,78.0
2022-08-26T04:26:32.641Z,78.0
2022-08-26T04:29:04.385Z,78.0
2022-08-26T04:31:45.099Z,78.0
2022-08-26T04:34:16.275Z,78.0
2022-08-26T04:36:39.149Z,78.0
2022-08-26T04:39:10.204Z,78.0
2022-08-26T04:41:41.839Z,78.0
2022-08-26T04:44:14.201Z,78.0
2022-08-26T04:46:55.504Z,78.0
2022-08-26T04:51:57.405Z,78.0
2022-08-26T04:54:28.699Z,78.0
2022-08-26T04:57:02.415Z,78.0
2022-08-26T04:59:38.582Z,78.0
2022-08-26T05:02:10.108Z,78.0
2022-08-26T05:04:40.751Z,78.0
2022-08-26T05:07:13.203Z,78.0
2022-08-26T05:09:43.765Z,78.0
2022-08-26T05:12:14.979Z,78.0
2022-08-26T05:14:57.160Z,78.0
2022-08-26T05:17:28.046Z,78.0
2022-08-26T05:20:00.165Z,78.0
2022-08-26T05:22:31.145Z,78.0
2022-08-26T05:25:01.770Z,78.0
2022-08-26T05:27:32.503Z,78.0
2022-08-26T05:32:43.625Z,78.0
2022-08-26T05:35:08.803Z,78.0
2022-08-26T05:37:39.616Z,78.0
2022-08-26T05:40:10.361Z,77.0
2022-08-26T05:42:41.446Z,77.0
2022-08-26T05:45:23.116Z,77.0
2022-08-26T05:47:53.693Z,77.0
2022-08-26T05:50:26.587Z,77.0
2022-08-26T05:52:59.503Z,77.0
2022-08-26T05:55:30.353Z,77.0
2022-08-26T05:58:00.923Z,76.0
2022-08-26T06:00:33.475Z,76.0
2022-08-26T06:03:04.814Z,76.0
2022-08-26T06:05:38.583Z,75.0
2022-08-26T06:08:10.043Z,75.0
2022-08-26T06:13:22.318Z,74.0
2022-08-26T06:15:54.383Z,74.0
2022-08-26T06:18:26.607Z,73.0
2022-08-26T06:20:53.759Z,73.0
2022-08-26T06:23:29.297Z,72.0
2022-08-26T06:25:50.898Z,71.0
2022-08-26T06:28:33.529Z,71.0
2022-08-26T06:31:06.254Z,70.0
2022-08-26T06:33:37.643Z,69.0
2022-08-26T06:36:09.702Z,69.0
2022-08-26T06:38:41.479Z,68.0
2022-08-26T06:41:13.224Z,68.0
2022-08-26T06:43:45.918Z,68.0
2022-08-26T06:46:26.590Z,66.0
2022-08-26T06:48:57.269Z,65.0
2022-08-26T06:53:51.284Z,64.0
2022-08-26T06:56:22.397Z,63.0
2022-08-26T06:59:05.126Z,63.0
2022-08-26T07:01:38.537Z,63.0
2022-08-26T07:04:10.395Z,63.0
2022-08-26T07:06:33.425Z,63.0
2022-08-26T07:09:06.160Z,64.0
2022-08-26T07:11:41.098Z,64.0
2022-08-26T07:14:22.024Z,63.0
2022-08-26T07:16:52.666Z,63.0
2022-08-26T07:19:27.537Z,63.0
2022-08-26T07:21:51.498Z,63.0
2022-08-26T07:24:22.675Z,62.0
2022-08-26T07:29:35.799Z,61.0
2022-08-26T07:34:36.593Z,61.0
2022-08-26T07:37:09.069Z,61.0
2022-08-26T07:39:42.042Z,61.0
2022-08-26T07:42:18.382Z,61.0
2022-08-26T07:44:50.664Z,61.0
2022-08-26T07:47:35.787Z,61.0
2022-08-26T07:49:47.253Z,60.0
2022-08-26T07:52:26.525Z,60.0
2022-08-26T07:54:48.674Z,61.0
2022-08-26T07:57:31.118Z,61.0
2022-08-26T08:00:04.104Z,62.0
2022-08-26T08:02:35.037Z,62.0
2022-08-26T08:05:08.227Z,62.0
2022-08-26T08:08:00.800Z,62.0
2022-08-26T08:10:09.846Z,62.0
2022-08-26T08:15:15.672Z,62.0
2022-08-26T08:17:46.382Z,62.0
2022-08-26T08:20:21.479Z,62.0
2022-08-26T08:22:53.975Z,62.0
2022-08-26T08:25:34.599Z,62.0
2022-08-26T08:28:07.121Z,62.0
2022-08-26T08:30:35.044Z,62.0
2022-08-26T08:33:05.747Z,62.0
2022-08-26T08:35:36.350Z,62.0
2022-08-26T08:38:07.230Z,62.0
2022-08-26T08:40:50.685Z,62.0
2022-08-26T08:43:14.891Z,62.0
2022-08-26T08:45:50.080Z,62.0
2022-08-26T08:48:21.601Z,62.0
2022-08-26T08:50:51.505Z,62.0
2022-08-26T08:56:02.394Z,62.0
2022-08-26T08:58:32.970Z,62.0
2022-08-26T09:01:03.966Z,62.0
2022-08-26T09:03:35.133Z,62.0
2022-08-26T09:06:05.791Z,62.0
2022-08-26T09:08:36.861Z,62.0
2022-08-26T09:11:10.546Z,62.0
2022-08-26T09:13:52.521Z,62.0
2022-08-26T09:16:13.091Z,62.0
2022-08-26T09:18:46.090Z,62.0
2022-08-26T09:21:17.855Z,62.0
2022-08-26T09:23:59.982Z,62.0
2022-08-26T09:26:38.846Z,62.0
2022-08-26T09:29:00.205Z,62.0
2022-08-26T09:31:31.030Z,62.0
2022-08-26T09:39:12.339Z,62.0
2022-08-26T09:41:42.921Z,62.0
2022-08-26T09:44:14.491Z,62.0
2022-08-26T09:46:46.604Z,62.0
2022-08-26T09:49:18.857Z,62.0
2022-08-26T09:51:43.122Z,62.0
2022-08-26T09:54:32.303Z,62.0
2022-08-26T09:56:55.847Z,62.0
2022-08-26T09:59:29.119Z,62.0
2022-08-26T10:02:03.055Z,62.0
2022-08-26T10:04:32.883Z,63.0
2022-08-26T10:07:03.642Z,64.0
2022-08-26T10:09:47.094Z,64.0
2022-08-26T10:12:12.242Z,65.0
2022-08-26T10:17:15.529Z,65.0
2022-08-26T10:20:09.837Z,65.0
2022-08-26T10:22:23.541Z,65.0
2022-08-26T10:24:56.514Z,65.0
2022-08-26T10:27:27.107Z,67.0
2022-08-26T10:30:03.579Z,67.0
2022-08-26T10:32:35.619Z,67.0
2022-08-26T10:35:02.993Z,67.0
2022-08-26T10:37:43.597Z,66.0
2022-08-26T10:40:14.471Z,67.0
2022-08-26T10:42:45.257Z,66.0
2022-08-26T10:45:21.772Z,66.0
2022-08-26T10:47:42.787Z,66.0
2022-08-26T10:50:13.922Z,67.0
2022-08-26T10:52:55.013Z,67.0
2022-08-26T10:57:58.069Z,68.0
2022-08-26T11:00:29.628Z,68.0
2022-08-26T11:02:57.694Z,68.0
2022-08-26T11:05:42.448Z,68.0
2022-08-26T11:08:13.658Z,68.0
2022-08-26T11:10:44.716Z,67.0
2022-08-26T11:13:09.360Z,67.0
2022-08-26T11:15:40.724Z,66.0
2022-08-26T11:18:13.347Z,66.0
2022-08-26T11:20:56.149Z,66.0
2022-08-26T11:23:20.735Z,66.0
2022-08-26T11:25:51.822Z,66.0
2022-08-26T11:28:22.543Z,66.0
2022-08-26T11:30:57.957Z,66.0
2022-08-26T11:33:30.533Z,66.0
2022-08-26T11:38:41.265Z,66.0
2022-08-26T11:41:14.147Z,66.0
2022-08-26T11:43:45.480Z,65.0
2022-08-26T11:46:07.391Z,65.0
2022-08-26T11:48:39.869Z,65.0
2022-08-26T11:51:20.655Z,65.0
2022-08-26T11:53:52.391Z,65.0
2022-08-26T11:56:22.998Z,65.0
2022-08-26T11:58:56.318Z,64.0
2022-08-26T12:01:27.817Z,64.0
2022-08-26T12:04:12.309Z,65.0
2022-08-26T12:06:34.629Z,65.0
2022-08-26T12:09:06.630Z,65.0
2022-08-26T12:11:40.087Z,65.0
2022-08-26T12:14:10.703Z,65.0
2022-08-26T12:19:21.437Z,64.0
2022-08-26T12:21:56.218Z,64.0
2022-08-26T12:24:30.078Z,63.0
2022-08-26T12:26:51.083Z,63.0
2022-08-26T12:29:36.623Z,63.0
2022-08-26T12:31:51.056Z,62.0
2022-08-26T12:34:32.201Z,62.0
2022-08-26T12:37:02.920Z,61.0
2022-08-26T12:39:35.083Z,62.0
2022-08-26T12:42:05.678Z,61.0
2022-08-26T12:44:36.632Z,61.0
2022-08-26T12:47:14.895Z,61.0
2022-08-26T12:49:53.253Z,61.0
2022-08-26T12:52:23.867Z,60.0
2022-08-26T12:54:56.805Z,59.0
2022-08-26T12:59:57.741Z,59.0
2022-08-26T13:02:28.347Z,59.0
2022-08-26T13:05:11.052Z,59.0
2022-08-26T13:07:31.620Z,59.0
2022-08-26T13:10:02.211Z,59.0
2022-08-26T13:12:42.811Z,59.0
2022-08-26T13:15:13.436Z,59.0
2022-08-26T13:17:54.029Z,59.0
2022-08-26T13:22:51.876Z,59.0
2022-08-26T13:25:20.054Z,59.0
2022-08-26T13:27:50.638Z,59.0
2022-08-26T13:33:01.741Z,59.0
2022-08-26T13:35:35.086Z,58.0
2022-08-26T13:40:35.971Z,58.0
2022-08-26T13:43:06.669Z,58.0
2022-08-26T13:45:37.267Z,58.0
2022-08-26T13:48:20.344Z,58.0
2022-08-26T13:50:52.183Z,57.0
2022-08-26T13:53:23.810Z,57.0
2022-08-26T13:55:54.419Z,57.0
2022-08-26T13:58:18.682Z,57.0
2022-08-26T14:00:59.410Z,58.0
2022-08-26T14:03:30.245Z,58.0
2022-08-26T14:06:00.971Z,58.0
2022-08-26T14:08:31.569Z,57.0
2022-08-26T14:11:02.176Z,57.0
2022-08-26T14:13:32.802Z,56.0
2022-08-26T14:16:13.622Z,55.0
2022-08-26T14:21:14.550Z,55.0
2022-08-26T14:26:16.847Z,53.0
2022-08-26T14:28:49.999Z,53.0
2022-08-26T14:31:30.798Z,53.0
2022-08-26T14:34:01.456Z,53.0
2022-08-26T14:36:32.193Z,53.0
2022-08-26T14:39:02.932Z,50.0
2022-08-26T14:41:33.544Z,51.0
2022-08-26T14:44:14.149Z,48.0
2022-08-26T14:46:44.914Z,49.0
2022-08-26T14:49:20.535Z,49.0
2022-08-26T14:51:51.210Z,50.0
2022-08-26T14:54:21.825Z,50.0
2022-08-26T14:56:52.410Z,50.0
2022-08-26T15:02:03.403Z,50.0
2022-08-26T15:04:32.729Z,50.0
2022-08-26T15:07:03.314Z,50.0
2022-08-26T15:09:33.897Z,52.0
2022-08-26T15:12:04.473Z,50.0
2022-08-26T15:14:45.089Z,50.0
2022-08-26T15:17:15.712Z,50.0
2022-08-26T15:19:46.321Z,50.0
2022-08-26T15:22:16.900Z,50.0
2022-08-26T15:24:51.814Z,49.0
2022-08-26T15:27:14.467Z,51.0
2022-08-26T15:29:55.079Z,52.0
2022-08-26T15:32:25.687Z,54.0
2022-08-26T15:34:56.291Z,53.0
2022-08-26T15:37:29.709Z,54.0
2022-08-26T15:42:40.728Z,54.0
2022-08-26T15:45:11.553Z,54.0
2022-08-26T15:50:15.633Z,55.0
2022-08-26T15:52:46.653Z,55.0
2022-08-26T15:55:17.647Z,55.0
2022-08-26T15:57:59.685Z,55.0
2022-08-26T16:00:30.387Z,56.0
2022-08-26T16:03:00.965Z,56.0
2022-08-26T16:05:31.660Z,56.0
2022-08-26T16:08:02.423Z,57.0
2022-08-26T16:10:33.063Z,57.0
2022-08-26T16:13:10.473Z,58.0
2022-08-26T16:15:43.567Z,58.0
2022-08-26T16:18:14.292Z,59.0
2022-08-26T16:23:15.165Z,60.0
2022-08-26T16:25:45.778Z,60.0
2022-08-26T16:28:36.208Z,61.0
2022-08-26T16:30:58.875Z,62.0
2022-08-26T16:33:39.662Z,63.0
2022-08-26T16:36:01.255Z,64.0
2022-08-26T16:38:33.443Z,64.0
2022-08-26T16:41:14.052Z,65.0
2022-08-26T16:43:44.639Z,65.0
2022-08-26T16:46:15.341Z,66.0
2022-08-26T16:48:46.391Z,67.0
2022-08-26T16:51:17.008Z,67.0
2022-08-26T16:53:47.653Z,68.0
2022-08-26T16:56:33.566Z,68.0
2022-08-26T16:58:54.713Z,69.0
2022-08-26T17:03:55.424Z,70.0
2022-08-26T17:06:26.001Z,69.0
2022-08-26T17:08:56.626Z,69.0
2022-08-26T17:11:37.212Z,70.0
2022-08-26T17:14:07.791Z,69.0
2022-08-26T17:16:38.432Z,69.0
2022-08-26T17:19:09.033Z,69.0
2022-08-26T17:21:39.612Z,69.0
2022-08-26T17:24:10.193Z,69.0
2022-08-26T17:26:53.499Z,69.0
2022-08-26T17:29:26.447Z,70.0
2022-08-26T17:31:57.029Z,70.0
2022-08-26T17:34:27.609Z,70.0
2022-08-26T17:36:58.204Z,71.0
2022-08-26T17:39:28.810Z,71.0
2022-08-26T17:44:39.544Z,71.0
2022-08-26T17:47:10.134Z,72.0
2022-08-26T17:49:40.723Z,72.0
2022-08-26T17:52:11.689Z,71.0
2022-08-26T17:54:52.375Z,71.0
2022-08-26T17:57:22.965Z,71.0
2022-08-26T17:59:51.151Z,71.0
2022-08-26T18:02:24.187Z,71.0
2022-08-26T18:04:54.855Z,71.0
2022-08-26T18:07:25.520Z,71.0
2022-08-26T18:10:04.331Z,71.0
2022-08-26T18:12:36.986Z,71.0
2022-08-26T18:15:08.878Z,71.0
2022-08-26T18:17:39.479Z,71.0
2022-08-26T18:20:10.069Z,72.0
2022-08-26T18:25:20.832Z,72.0
2022-08-26T18:27:51.424Z,72.0
2022-08-26T18:30:26.560Z,72.0
2022-08-26T18:32:57.190Z,72.0
2022-08-26T18:35:27.773Z,72.0
2022-08-26T18:37:58.395Z,72.0
2022-08-26T18:40:34.346Z,72.0
2022-08-26T18:43:04.969Z,72.0
2022-08-26T18:45:35.553Z,72.0
2022-08-26T18:48:06.245Z,72.0
2022-08-26T18:50:36.874Z,72.0
2022-08-26T18:53:17.934Z,72.0
2022-08-26T18:55:48.540Z,73.0
2022-08-26T18:58:21.072Z,73.0
2022-08-26T19:00:51.663Z,73.0
2022-08-26T19:05:52.637Z,73.0
2022-08-26T19:08:33.263Z,73.0
2022-08-26T19:11:05.249Z,73.0
2022-08-26T19:13:40.496Z,73.0
2022-08-26T19:16:11.173Z,73.0
2022-08-26T19:18:43.955Z,73.0
2022-08-26T19:21:06.263Z,74.0
2022-08-26T19:23:47.377Z,74.0
2022-08-26T19:26:17.980Z,74.0
2022-08-26T19:28:48.596Z,74.0
2022-08-26T19:31:19.215Z,74.0
2022-08-26T19:33:49.842Z,74.0
2022-08-26T19:36:24.869Z,74.0
2022-08-26T19:39:05.516Z,74.0
2022-08-26T19:41:46.962Z,74.0
2022-08-26T19:49:09.407Z,71.0
2022-08-26T19:51:50.023Z,69.0
2022-08-26T19:54:20.627Z,69.0
2022-08-26T19:56:51.226Z,69.0
2022-08-26T19:59:21.826Z,69.0
2022-08-26T20:02:00.400Z,69.0
2022-08-26T20:04:21.830Z,69.0
2022-08-26T20:07:07.973Z,69.0
2022-08-26T20:09:29.482Z,70.0
2022-08-26T20:12:00.092Z,70.0
2022-08-26T20:14:33.283Z,70.0
2022-08-26T20:17:04.187Z,70.0
2022-08-26T20:19:37.306Z,71.0
2022-08-26T20:22:18.068Z,71.0
2022-08-26T20:27:18.810Z,71.0
2022-08-26T20:29:48.397Z,71.0
2022-08-26T20:32:19.084Z,71.0
2022-08-26T20:34:45.425Z,71.0
2022-08-26T20:37:31.573Z,71.0
2022-08-26T20:40:02.292Z,71.0
2022-08-26T20:42:33.041Z,71.0
2022-08-26T20:45:04.975Z,72.0
2022-08-26T20:47:38.285Z,72.0
2022-08-26T20:50:18.902Z,72.0
2022-08-26T20:52:49.498Z,72.0
2022-08-26T20:55:20.120Z,72.0
2022-08-26T20:57:50.705Z,72.0
2022-08-26T21:00:21.282Z,72.0
2022-08-26T21:02:52.788Z,72.0
2022-08-26T21:08:04.595Z,73.0
2022-08-26T21:10:36.596Z,73.0
2022-08-26T21:12:57.675Z,73.0
2022-08-26T21:15:29.060Z,73.0
2022-08-26T21:18:01.855Z,73.0
2022-08-26T21:20:42.555Z,73.0
2022-08-26T21:23:13.118Z,73.0
2022-08-26T21:25:49.134Z,74.0
2022-08-26T21:28:19.998Z,74.0
2022-08-26T21:30:50.619Z,74.0
2022-08-26T21:33:21.215Z,74.0
2022-08-26T21:36:03.336Z,74.0
2022-08-26T21:38:33.945Z,75.0
2022-08-26T21:41:04.559Z,75.0
2022-08-26T21:43:37.890Z,75.0
2022-08-26T21:48:47.676Z,75.0
2022-08-26T21:51:10.559Z,75.0
2022-08-26T21:53:41.185Z,75.0
2022-08-26T21:56:11.792Z,75.0
2022-08-26T21:58:42.364Z,75.0
2022-08-26T22:01:13.295Z,75.0
2022-08-26T22:03:57.952Z,75.0
2022-08-26T22:06:28.566Z,75.0
2022-08-26T22:08:59.164Z,75.0
2022-08-26T22:11:29.725Z,75.0
2022-08-26T22:14:00.319Z,75.0
2022-08-26T22:16:31.052Z,75.0
2022-08-26T22:19:12.255Z,75.0
2022-08-26T22:21:47.573Z,75.0
2022-08-26T22:24:18.162Z,75.0
2022-08-26T22:29:18.903Z,75.0
2022-08-26T22:31:49.639Z,75.0
2022-08-26T22:34:30.321Z,74.0
2022-08-26T22:37:00.889Z,74.0
2022-08-26T22:39:31.513Z,74.0
2022-08-26T22:42:02.116Z,74.0
2022-08-26T22:44:32.698Z,74.0
2022-08-26T22:47:13.282Z,74.0
2022-08-26T22:49:43.872Z,74.0
2022-08-26T22:52:14.464Z,74.0
2022-08-26T22:57:15.190Z,74.0
2022-08-26T22:59:45.757Z,74.0
2022-08-26T23:02:26.363Z,74.0
2022-08-26T23:04:56.987Z,74.0
2022-08-26T23:09:57.724Z,74.0
2022-08-26T23:12:28.314Z,74.0
2022-08-26T23:14:58.914Z,74.0
2022-08-26T23:17:39.534Z,74.0
2022-08-26T23:20:09.117Z,74.0
2022-08-26T23:22:39.690Z,74.0
2022-08-26T23:25:10.309Z,74.0
2022-08-26T23:27:40.955Z,74.0
2022-08-26T23:30:11.528Z,75.0
2022-08-26T23:32:52.135Z,75.0
2022-08-26T23:35:24.429Z,75.0
2022-08-26T23:37:57.855Z,75.0
2022-08-26T23:40:30.551Z,75.0
2022-08-26T23:43:01.172Z,75.0
2022-08-26T23:45:41.876Z,75.0
2022-08-26T23:50:42.702Z,75.0
2022-08-26T23:53:13.283Z,75.0
2022-08-26T23:55:43.898Z,75.0
2022-08-26T23:58:14.463Z,75.0
